Time;durP1;ratioP1;P1;durP2;ratioP2;P2;SDS_P1;SDS_P2;PMS_P1;PMS_P2;Temp;Humidity;BMP_temperature;BMP_pressure;BME280_temperature;BME280_humidity;BME280_pressure;Samples;Min_cycle;Max_cycle;Signal;HPM_P1;HPM_P2
2021/06/10 00:01:44;;;;;;;1.70;0.50;;;14.60;99.90;;;;;;5006720;28;20046;-78
2021/06/10 00:04:09;;;;;;;1.48;0.60;;;14.60;99.90;;;;;;5005543;28;20069;-78
2021/06/10 00:06:35;;;;;;;2.58;0.60;;;14.60;99.90;;;;;;5005746;28;20037;-78
2021/06/10 00:09:00;;;;;;;2.58;0.70;;;14.60;99.90;;;;;;5006639;28;20172;-78
2021/06/10 00:11:26;;;;;;;2.17;0.50;;;14.60;99.90;;;;;;5006863;28;20030;-78
2021/06/10 00:13:52;;;;;;;1.08;0.47;;;14.50;99.90;;;;;;5021937;28;20031;-78
2021/06/10 00:16:17;;;;;;;2.35;0.60;;;14.40;99.90;;;;;;5021859;28;20033;-77
2021/06/10 00:18:46;;;;;;;1.02;0.50;;;14.40;99.90;;;;;;5006734;28;20038;-78
2021/06/10 00:21:11;;;;;;;1.65;0.80;;;14.40;99.90;;;;;;5006651;28;20037;-78
2021/06/10 00:23:37;;;;;;;1.52;0.60;;;14.40;99.90;;;;;;5006666;28;20038;-78
2021/06/10 00:26:03;;;;;;;1.40;0.60;;;14.40;99.90;;;;;;5006291;28;20030;-78
2021/06/10 00:28:28;;;;;;;1.40;0.60;;;14.40;99.90;;;;;;5006554;28;20035;-78
2021/06/10 00:30:54;;;;;;;2.53;0.60;;;14.30;99.90;;;;;;5006359;28;20034;-78
2021/06/10 00:33:20;;;;;;;2.03;0.50;;;14.30;99.90;;;;;;5005622;28;20030;-78
2021/06/10 00:35:45;;;;;;;2.63;0.63;;;14.30;99.90;;;;;;5005106;28;20038;-78
2021/06/10 00:38:11;;;;;;;3.05;0.60;;;14.30;99.90;;;;;;5005106;28;20136;-78
2021/06/10 00:40:37;;;;;;;1.70;0.60;;;14.20;99.90;;;;;;5006040;28;20031;-78
2021/06/10 00:43:03;;;;;;;1.30;0.57;;;14.20;99.90;;;;;;5006389;28;20081;-78
2021/06/10 00:45:29;;;;;;;1.52;0.50;;;14.20;99.90;;;;;;4988814;28;20038;-78
2021/06/10 00:47:56;;;;;;;1.73;0.70;;;14.10;99.90;;;;;;5006311;28;20068;-78
2021/06/10 00:50:34;;;;;;;2.05;0.70;;;14.20;99.90;;;;;;4988552;28;20098;-78
2021/06/10 00:53:00;;;;;;;1.08;0.50;;;14.10;99.90;;;;;;5006340;28;20030;-78
2021/06/10 00:55:26;;;;;;;1.70;0.75;;;14.10;99.90;;;;;;5006385;28;20537;-78
2021/06/10 00:57:52;;;;;;;2.20;0.60;;;14.10;99.90;;;;;;5004766;28;20473;-78
2021/06/10 01:00:18;;;;;;;1.25;0.60;;;14.00;99.90;;;;;;5004792;28;20026;-77
2021/06/10 01:02:44;;;;;;;1.58;0.60;;;14.10;99.90;;;;;;5006083;28;20114;-78
2021/06/10 01:05:10;;;;;;;1.63;0.60;;;14.00;99.90;;;;;;5006202;28;20043;-78
2021/06/10 01:07:44;;;;;;;2.47;0.70;;;13.90;99.90;;;;;;5005643;28;20077;-77
2021/06/10 01:10:13;;;;;;;1.35;0.75;;;13.80;99.90;;;;;;5005957;28;20042;-78
2021/06/10 01:13:02;;;;;;;1.30;0.68;;;13.80;99.90;;;;;;5005781;28;20058;-77
2021/06/10 01:15:32;;;;;;;2.35;0.65;;;13.90;99.90;;;;;;5004906;28;20120;-78
2021/06/10 01:17:59;;;;;;;2.08;0.70;;;13.80;99.90;;;;;;5005969;28;20038;-78
2021/06/10 01:20:27;;;;;;;1.55;0.80;;;13.80;99.90;;;;;;5010081;28;20085;-78
2021/06/10 01:22:58;;;;;;;2.25;0.75;;;13.80;99.90;;;;;;5009765;28;20026;-78
2021/06/10 01:25:24;;;;;;;1.92;0.70;;;13.70;99.90;;;;;;5009743;28;20031;-78
2021/06/10 01:27:56;;;;;;;1.77;0.60;;;13.70;99.90;;;;;;5008254;28;20030;-78
2021/06/10 01:30:35;;;;;;;2.95;0.80;;;13.70;99.90;;;;;;5009707;28;20422;-78
2021/06/10 01:33:07;;;;;;;1.70;0.90;;;13.70;99.90;;;;;;5024827;28;20057;-77
2021/06/10 01:35:41;;;;;;;1.65;0.90;;;13.60;99.90;;;;;;5008330;28;20110;-77
2021/06/10 01:38:08;;;;;;;2.28;1.02;;;13.60;99.90;;;;;;5009443;28;20039;-77
2021/06/10 01:40:34;;;;;;;2.03;0.80;;;13.70;99.90;;;;;;5008084;28;20537;-78
2021/06/10 01:43:01;;;;;;;2.20;1.05;;;13.60;99.90;;;;;;5009270;28;20117;-77
2021/06/10 01:45:27;;;;;;;1.90;0.90;;;13.50;99.90;;;;;;5009447;28;20065;-77
2021/06/10 01:47:55;;;;;;;2.55;0.98;;;13.50;99.90;;;;;;5008076;28;20042;-77
2021/06/10 01:50:23;;;;;;;3.20;0.80;;;13.50;99.90;;;;;;4991762;28;20030;-77
2021/06/10 01:52:50;;;;;;;1.73;0.80;;;13.50;99.90;;;;;;5024514;28;20461;-77
2021/06/10 01:55:18;;;;;;;1.33;0.65;;;13.50;99.90;;;;;;5009223;28;20540;-78
2021/06/10 01:57:45;;;;;;;3.95;1.10;;;13.50;99.90;;;;;;5008844;28;20069;-77
2021/06/10 02:00:13;;;;;;;1.75;0.90;;;13.40;99.90;;;;;;5009124;28;20098;-77
2021/06/10 02:02:39;;;;;;;1.65;1.00;;;13.40;99.90;;;;;;5008942;28;20026;-77
2021/06/10 02:05:10;;;;;;;2.10;0.93;;;13.40;99.90;;;;;;5009154;28;20482;-77
2021/06/10 02:07:36;;;;;;;;;;;13.40;99.90;;;;;;5007622;28;20053;-77
2021/06/10 02:10:05;;;;;;;1.75;0.80;;;13.40;99.90;;;;;;5007635;28;19916;-78
2021/06/10 02:12:31;;;;;;;1.80;0.98;;;13.30;99.90;;;;;;5007536;28;20030;-77
2021/06/10 02:15:00;;;;;;;3.85;1.10;;;13.30;99.90;;;;;;5007588;28;20044;-77
2021/06/10 02:17:25;;;;;;;2.92;1.08;;;13.30;99.90;;;;;;5007292;28;20035;-77
2021/06/10 02:19:51;;;;;;;1.80;0.98;;;13.30;99.90;;;;;;5008642;28;20033;-78
2021/06/10 02:22:17;;;;;;;1.67;0.88;;;13.30;99.90;;;;;;5008742;28;20581;-78
2021/06/10 02:24:43;;;;;;;1.80;1.10;;;13.20;99.90;;;;;;5008795;28;20034;-78
2021/06/10 02:27:09;;;;;;;2.97;1.20;;;13.30;99.90;;;;;;5006966;28;20037;-78
2021/06/10 02:29:34;;;;;;;2.08;1.10;;;13.30;99.90;;;;;;5007975;28;20062;-78
2021/06/10 02:32:00;;;;;;;3.05;1.33;;;13.20;99.90;;;;;;5006825;28;20034;-77
2021/06/10 02:34:26;;;;;;;3.95;1.63;;;13.20;99.90;;;;;;5023741;28;20058;-77
2021/06/10 02:36:52;;;;;;;2.47;1.20;;;13.20;99.90;;;;;;5008194;28;20052;-78
2021/06/10 02:39:20;;;;;;;2.40;1.08;;;13.20;99.90;;;;;;5008426;28;20109;-77
2021/06/10 02:41:51;;;;;;;1.60;1.00;;;13.20;99.90;;;;;;5023662;28;20397;-77
2021/06/10 02:44:17;;;;;;;2.25;1.05;;;13.20;99.90;;;;;;5006976;28;20058;-78
2021/06/10 02:46:44;;;;;;;2.67;0.90;;;13.30;99.90;;;;;;5023555;28;20023;-77
2021/06/10 02:49:12;;;;;;;1.80;0.85;;;13.20;99.90;;;;;;5006881;28;20069;-77
2021/06/10 02:51:38;;;;;;;1.77;1.10;;;13.20;99.90;;;;;;5007143;28;20104;-77
2021/06/10 02:54:12;;;;;;;1.70;0.93;;;13.10;99.90;;;;;;5006882;28;20034;-77
2021/06/10 02:56:41;;;;;;;2.22;1.10;;;13.10;99.90;;;;;;5006787;28;20030;-78
2021/06/10 02:59:07;;;;;;;2.00;1.52;;;13.10;99.90;;;;;;5006449;28;20070;-77
2021/06/10 03:01:38;;;;;;;2.65;0.90;;;13.10;99.90;;;;;;5006762;28;20034;-77
2021/06/10 03:04:05;;;;;;;3.42;1.08;;;13.10;99.90;;;;;;5008019;28;20030;-77
2021/06/10 03:06:32;;;;;;;2.30;1.05;;;13.10;99.90;;;;;;5007581;28;20026;-77
2021/06/10 03:08:57;;;;;;;2.33;1.20;;;13.00;99.90;;;;;;5006675;28;20051;-77
2021/06/10 03:11:24;;;;;;;2.22;1.05;;;13.00;99.90;;;;;;5006675;28;20037;-77
2021/06/10 03:13:50;;;;;;;2.80;1.65;;;13.00;99.90;;;;;;5006383;28;20061;-77
2021/06/10 03:16:17;;;;;;;3.60;1.40;;;13.00;99.90;;;;;;5006600;28;20030;-77
2021/06/10 03:18:43;;;;;;;3.55;1.65;;;13.00;99.90;;;;;;5006441;28;20304;-77
2021/06/10 03:21:09;;;;;;;2.47;1.40;;;13.00;99.90;;;;;;5006436;28;20030;-77
2021/06/10 03:23:35;;;;;;;2.50;1.42;;;13.00;99.90;;;;;;5006510;28;20034;-77
2021/06/10 03:26:03;;;;;;;2.95;1.63;;;13.00;99.90;;;;;;5006333;28;20037;-77
2021/06/10 03:28:29;;;;;;;2.40;1.63;;;12.90;99.90;;;;;;4989905;28;20101;-77
2021/06/10 03:30:55;;;;;;;2.22;1.17;;;12.90;99.90;;;;;;5007520;28;20053;-78
2021/06/10 03:33:23;;;;;;;2.85;2.08;;;13.00;99.90;;;;;;5006252;28;20039;-78
2021/06/10 03:35:49;;;;;;;3.70;1.67;;;12.90;99.90;;;;;;5005753;28;20035;-77
2021/06/10 03:38:17;;;;;;;3.60;1.98;;;13.00;99.90;;;;;;5006691;28;20026;-78
2021/06/10 03:40:45;;;;;;;3.25;2.05;;;12.90;99.90;;;;;;5005352;28;20371;-78
2021/06/10 03:43:12;;;;;;;3.78;1.73;;;13.00;99.90;;;;;;5006675;28;20059;-78
2021/06/10 03:45:39;;;;;;;6.20;1.70;;;13.00;99.90;;;;;;5005363;28;20041;-77
2021/06/10 03:48:06;;;;;;;2.85;1.90;;;13.00;99.90;;;;;;5005220;28;20101;-78
2021/06/10 03:50:35;;;;;;;4.10;2.05;;;13.00;99.90;;;;;;5005431;28;20414;-78
2021/06/10 03:53:01;;;;;;;2.38;2.08;;;13.10;99.90;;;;;;5006648;28;20034;-78
2021/06/10 03:55:26;;;;;;;2.13;1.65;;;13.00;99.90;;;;;;5005231;28;20085;-78
2021/06/10 03:57:52;;;;;;;2.47;1.60;;;13.00;99.90;;;;;;5006255;28;20082;-78
2021/06/10 04:00:18;;;;;;;4.38;2.33;;;13.00;99.90;;;;;;5006131;28;20080;-78
2021/06/10 04:02:44;;;;;;;3.03;1.88;;;13.10;99.90;;;;;;5005205;28;20501;-78
2021/06/10 04:05:10;;;;;;;2.80;1.85;;;13.10;99.90;;;;;;5005106;28;20026;-77
2021/06/10 04:07:36;;;;;;;4.28;1.83;;;13.10;99.90;;;;;;4988416;28;20050;-78
2021/06/10 04:10:06;;;;;;;3.58;1.77;;;13.10;99.90;;;;;;5004564;28;20121;-77
2021/06/10 04:12:34;;;;;;;2.58;1.40;;;13.20;99.90;;;;;;5001557;28;20046;-78
2021/06/10 04:15:00;;;;;;;3.63;1.90;;;13.20;99.90;;;;;;4989955;28;20414;-78
2021/06/10 04:17:26;;;;;;;4.25;1.70;;;13.20;99.90;;;;;;5001425;28;20046;-78
2021/06/10 04:19:52;;;;;;;3.53;1.70;;;13.30;99.90;;;;;;5002256;28;20034;-78
2021/06/10 04:22:17;;;;;;;4.18;2.00;;;13.30;99.90;;;;;;5005946;28;20031;-77
2021/06/10 04:24:43;;;;;;;5.45;2.15;;;13.40;99.90;;;;;;5001225;28;20030;-78
2021/06/10 04:27:09;;;;;;;3.33;1.52;;;13.50;99.90;;;;;;5005101;28;20059;-78
2021/06/10 04:29:35;;;;;;;2.30;1.55;;;13.60;99.90;;;;;;5020703;28;20038;-78
2021/06/10 04:32:01;;;;;;;3.15;1.55;;;13.80;99.90;;;;;;4988173;28;20031;-78
2021/06/10 04:34:27;;;;;;;3.35;2.00;;;13.90;99.90;;;;;;5005611;28;20068;-78
2021/06/10 04:36:52;;;;;;;3.13;1.85;;;14.00;99.90;;;;;;5003566;28;20038;-78
2021/06/10 04:39:18;;;;;;;3.53;2.03;;;14.10;99.90;;;;;;5005422;28;20046;-78
2021/06/10 04:41:44;;;;;;;3.05;2.67;;;14.20;99.90;;;;;;5005558;28;20026;-78
2021/06/10 04:44:09;;;;;;;2.35;1.67;;;14.40;99.90;;;;;;5020617;28;20053;-79
2021/06/10 04:46:35;;;;;;;3.70;2.15;;;14.60;99.90;;;;;;5004401;28;20026;-78
2021/06/10 04:49:01;;;;;;;3.58;2.08;;;14.80;99.90;;;;;;5005504;28;20056;-78
2021/06/10 04:51:27;;;;;;;2.65;2.08;;;14.90;99.90;;;;;;5020883;28;20518;-78
2021/06/10 04:53:56;;;;;;;3.60;1.90;;;15.10;99.90;;;;;;5021137;28;20026;-79
2021/06/10 04:56:23;;;;;;;3.35;2.42;;;15.30;99.90;;;;;;5020602;28;20049;-79
2021/06/10 04:58:49;;;;;;;4.05;1.90;;;15.50;99.90;;;;;;4995969;28;20499;-78
2021/06/10 05:01:15;;;;;;;2.28;1.67;;;15.60;99.90;;;;;;4956891;28;20339;-79
2021/06/10 05:03:41;;;;;;;2.83;1.88;;;15.80;99.90;;;;;;4987352;28;20314;-79
2021/06/10 05:06:06;;;;;;;2.80;2.45;;;16.00;99.90;;;;;;5003974;28;20065;-79
2021/06/10 05:08:35;;;;;;;3.63;2.38;;;16.20;99.90;;;;;;5004984;28;20042;-79
2021/06/10 05:11:01;;;;;;;2.67;2.10;;;16.30;99.90;;;;;;5011938;28;20026;-79
2021/06/10 05:13:27;;;;;;;2.63;1.83;;;16.40;99.90;;;;;;5040154;28;20045;-79
2021/06/10 05:15:53;;;;;;;3.58;2.63;;;16.40;99.90;;;;;;5007334;28;20036;-80
2021/06/10 05:18:18;;;;;;;4.20;2.92;;;16.50;99.90;;;;;;5024821;28;20069;-79
2021/06/10 05:20:44;;;;;;;4.25;2.10;;;16.60;99.90;;;;;;5039945;28;20057;-79
2021/06/10 05:23:10;;;;;;;5.13;2.90;;;16.70;99.90;;;;;;5013078;28;20027;-79
2021/06/10 05:25:35;;;;;;;3.40;2.63;;;16.90;99.90;;;;;;5003635;28;20068;-80
2021/06/10 05:28:01;;;;;;;3.85;2.80;;;17.00;99.90;;;;;;4987126;28;20059;-80
2021/06/10 05:30:27;;;;;;;3.83;2.67;;;17.10;99.90;;;;;;5003638;28;20058;-80
2021/06/10 05:32:54;;;;;;;3.95;2.70;;;17.20;99.90;;;;;;5003735;28;20065;-79
2021/06/10 05:35:19;;;;;;;4.35;3.05;;;17.30;99.90;;;;;;4987552;28;20041;-80
2021/06/10 05:37:45;;;;;;;4.25;3.03;;;17.50;99.90;;;;;;4987289;28;20022;-79
2021/06/10 05:40:11;;;;;;;3.63;2.90;;;17.50;99.90;;;;;;5003554;28;20129;-80
2021/06/10 05:42:38;;;;;;;4.35;3.20;;;17.70;99.90;;;;;;5003723;28;20089;-80
2021/06/10 05:45:05;;;;;;;4.20;3.03;;;17.80;99.90;;;;;;5004973;28;20031;-79
2021/06/10 05:47:31;;;;;;;4.18;3.33;;;17.90;99.90;;;;;;5003287;28;20050;-79
2021/06/10 05:49:56;;;;;;;4.70;3.13;;;18.10;99.90;;;;;;4987230;28;20035;-79
2021/06/10 05:52:23;;;;;;;4.97;3.25;;;18.30;99.90;;;;;;5003613;28;20093;-79
2021/06/10 05:54:50;;;;;;;8.90;3.78;;;18.40;99.90;;;;;;5019884;28;20063;-79
2021/06/10 05:57:16;;;;;;;5.97;3.75;;;18.60;99.90;;;;;;5004903;28;20038;-79
2021/06/10 05:59:43;;;;;;;4.50;4.10;;;18.70;99.90;;;;;;5003354;28;20043;-79
2021/06/10 06:02:08;;;;;;;6.18;3.88;;;18.90;99.90;;;;;;5003621;28;20382;-79
2021/06/10 06:04:34;;;;;;;6.10;4.28;;;19.00;99.90;;;;;;5003642;28;20034;-79
2021/06/10 06:07:00;;;;;;;5.03;4.55;;;19.10;99.90;;;;;;5007680;28;20046;-79
2021/06/10 06:09:25;;;;;;;5.78;5.20;;;19.20;99.90;;;;;;5006927;28;20480;-79
2021/06/10 06:11:52;;;;;;;5.15;4.00;;;19.30;99.90;;;;;;5006968;28;20030;-79
2021/06/10 06:14:24;;;;;;;5.63;4.65;;;19.50;99.90;;;;;;5008434;28;20034;-79
2021/06/10 06:16:49;;;;;;;5.45;3.50;;;19.60;99.90;;;;;;5006960;28;20505;-79
2021/06/10 06:19:15;;;;;;;5.82;4.72;;;19.80;99.90;;;;;;5006548;28;20042;-79
2021/06/10 06:21:41;;;;;;;4.53;4.10;;;19.80;99.90;;;;;;5008063;28;20084;-79
2021/06/10 06:24:08;;;;;;;5.65;4.75;;;20.10;99.90;;;;;;5006791;28;20129;-79
2021/06/10 06:26:34;;;;;;;8.18;3.70;;;20.20;99.90;;;;;;5008003;28;20045;-79
2021/06/10 06:29:02;;;;;;;4.97;4.13;;;20.40;99.90;;;;;;5007875;28;20102;-79
2021/06/10 06:31:29;;;;;;;5.18;3.50;;;20.60;99.90;;;;;;5022945;28;20037;-79
2021/06/10 06:33:55;;;;;;;4.70;3.50;;;20.60;99.90;;;;;;5007942;28;20039;-79
2021/06/10 06:36:21;;;;;;;4.68;4.22;;;20.50;99.90;;;;;;5006505;28;20030;-79
2021/06/10 06:38:47;;;;;;;4.78;3.75;;;20.30;99.90;;;;;;5008261;28;20041;-79
2021/06/10 06:41:14;;;;;;;6.70;5.05;;;20.60;99.90;;;;;;5006409;28;20125;-79
2021/06/10 06:43:39;;;;;;;7.15;5.80;;;20.30;99.90;;;;;;5006592;28;20042;-79
2021/06/10 06:46:09;;;;;;;4.25;3.63;;;20.30;99.90;;;;;;5006454;28;20026;-79
2021/06/10 06:48:36;;;;;;;4.25;3.08;;;20.80;99.90;;;;;;5007618;28;20106;-79
2021/06/10 06:51:02;;;;;;;5.53;2.53;;;21.30;99.90;;;;;;5006298;28;20100;-79
2021/06/10 06:53:31;;;;;;;3.35;2.92;;;21.50;99.90;;;;;;5006647;28;20046;-79
2021/06/10 06:55:58;;;;;;;3.97;2.80;;;21.30;99.90;;;;;;5006343;28;20058;-79
2021/06/10 06:58:24;;;;;;;4.85;4.00;;;21.50;99.90;;;;;;5006087;28;20042;-80
2021/06/10 07:00:49;;;;;;;4.20;2.63;;;21.20;99.90;;;;;;5022596;28;20030;-79
2021/06/10 07:03:15;;;;;;;5.80;4.38;;;21.40;99.90;;;;;;5006368;28;20378;-79
2021/06/10 07:06:01;;;;;;;4.97;4.43;;;21.20;99.90;;;;;;5006238;28;20515;-79
2021/06/10 07:08:29;;;;;;;5.22;3.53;;;21.20;99.90;;;;;;4949905;29;20427;-79
2021/06/10 07:10:55;;;;;;;4.97;3.80;;;21.20;99.90;;;;;;4949917;29;20095;-79
2021/06/10 07:13:22;;;;;;;3.10;2.78;;;21.50;99.90;;;;;;4949932;29;20077;-79
2021/06/10 07:15:48;;;;;;;3.28;2.40;;;21.50;99.90;;;;;;4949858;28;20031;-80
2021/06/10 07:18:13;;;;;;;3.97;2.08;;;21.80;99.90;;;;;;4965809;29;20619;-79
2021/06/10 07:20:39;;;;;;;2.28;1.48;;;22.30;99.90;;;;;;4965859;29;20041;-79
2021/06/10 07:23:04;;;;;;;3.70;1.80;;;22.90;99.90;;;;;;4965726;29;20129;-79
2021/06/10 07:25:30;;;;;;;3.67;2.45;;;22.70;99.90;;;;;;4949865;29;20040;-80
2021/06/10 07:27:56;;;;;;;2.53;1.00;;;22.40;99.90;;;;;;4949806;29;20027;-79
2021/06/10 07:30:22;;;;;;;5.43;3.13;;;22.50;99.90;;;;;;4949710;29;20035;-80
2021/06/10 07:32:48;;;;;;;3.17;1.88;;;22.00;99.90;;;;;;4949894;29;20035;-79
2021/06/10 07:35:14;;;;;;;2.13;1.63;;;22.60;99.90;;;;;;4949733;29;20049;-79
2021/06/10 07:37:41;;;;;;;3.70;2.45;;;23.00;99.90;;;;;;4965443;29;20041;-79
2021/06/10 07:40:07;;;;;;;4.57;1.77;;;22.40;99.90;;;;;;4949368;29;20115;-79
2021/06/10 07:42:32;;;;;;;3.90;2.63;;;22.60;99.90;;;;;;4949487;29;20089;-78
2021/06/10 07:44:58;;;;;;;3.08;2.20;;;22.30;99.90;;;;;;4947092;28;20137;-79
2021/06/10 07:47:24;;;;;;;3.95;2.80;;;22.10;99.90;;;;;;5005202;28;20030;-79
2021/06/10 07:49:49;;;;;;;3.33;1.40;;;22.10;99.90;;;;;;4988885;28;20030;-78
2021/06/10 07:52:15;;;;;;;3.17;1.65;;;22.80;99.90;;;;;;5006651;28;20030;-78
2021/06/10 07:54:41;;;;;;;3.55;1.92;;;22.50;99.90;;;;;;5006601;28;20068;-78
2021/06/10 07:57:07;;;;;;;3.65;2.05;;;22.20;99.90;;;;;;5006288;28;20117;-79
2021/06/10 07:59:33;;;;;;;4.13;2.22;;;22.30;99.90;;;;;;5004984;28;20047;-79
2021/06/10 08:01:59;;;;;;;3.55;1.70;;;22.30;99.90;;;;;;5005187;28;20493;-79
2021/06/10 08:04:24;;;;;;;2.95;1.98;;;22.40;99.90;;;;;;5006330;28;20030;-79
2021/06/10 08:06:50;;;;;;;2.58;1.20;;;22.50;99.90;;;;;;5005690;28;20065;-79
2021/06/10 08:09:16;;;;;;;2.70;1.77;;;22.90;99.90;;;;;;5004702;28;20030;-78
2021/06/10 08:11:43;;;;;;;2.30;1.27;;;22.70;99.90;;;;;;5006079;28;20084;-79
2021/06/10 08:14:09;;;;;;;3.15;2.33;;;23.20;99.90;;;;;;5006020;28;20030;-79
2021/06/10 08:16:35;;;;;;;2.42;0.88;;;23.10;99.90;;;;;;5004730;28;20034;-79
2021/06/10 08:19:01;;;;;;;2.58;0.70;;;23.50;99.90;;;;;;5004354;28;20038;-79
2021/06/10 08:21:27;;;;;;;2.53;1.00;;;23.50;99.90;;;;;;5004480;28;20038;-79
2021/06/10 08:23:53;;;;;;;2.40;0.80;;;23.00;99.90;;;;;;5005849;28;20030;-78
2021/06/10 08:26:19;;;;;;;1.95;0.85;;;23.00;99.90;;;;;;5004633;28;20088;-79
2021/06/10 08:28:44;;;;;;;3.15;1.42;;;22.90;99.90;;;;;;5003829;28;20030;-79
2021/06/10 08:31:10;;;;;;;2.72;1.20;;;22.90;99.90;;;;;;4988516;28;20437;-78
2021/06/10 08:33:36;;;;;;;4.50;1.20;;;23.00;99.90;;;;;;5005889;28;20030;-79
2021/06/10 08:36:06;;;;;;;2.10;1.13;;;23.00;99.90;;;;;;5004369;28;20030;-79
2021/06/10 08:38:33;;;;;;;3.78;1.55;;;23.10;99.90;;;;;;5004387;28;20101;-79
2021/06/10 08:41:00;;;;;;;3.90;1.45;;;23.20;99.90;;;;;;4988232;28;20038;-79
2021/06/10 08:43:26;;;;;;;4.88;2.38;;;23.60;99.90;;;;;;5004297;28;20062;-79
2021/06/10 08:46:03;;;;;;;1.83;1.08;;;23.70;99.90;;;;;;5004452;28;20030;-79
2021/06/10 08:48:33;;;;;;;4.65;2.83;;;23.90;99.90;;;;;;5004308;28;20073;-79
2021/06/10 08:50:59;;;;;;;4.28;2.30;;;23.60;99.90;;;;;;5004250;28;20038;-79
2021/06/10 08:53:25;;;;;;;3.60;2.15;;;23.50;99.90;;;;;;5005596;28;20105;-79
2021/06/10 08:55:55;;;;;;;3.40;2.22;;;23.40;99.90;;;;;;4988111;28;20069;-79
2021/06/10 08:58:20;;;;;;;2.40;1.27;;;23.40;99.90;;;;;;5005464;28;20053;-79
2021/06/10 09:00:46;;;;;;;2.95;1.80;;;23.70;99.90;;;;;;5005431;28;20546;-79
2021/06/10 09:03:12;;;;;;;3.30;1.98;;;24.10;99.90;;;;;;5005544;28;20042;-79
2021/06/10 09:06:19;;;;;;;8.18;3.50;;;24.30;99.90;;;;;;5004273;28;20038;-80
2021/06/10 09:08:49;;;;;;;3.22;2.03;;;24.50;99.90;;;;;;4962676;28;20086;-79
2021/06/10 09:11:19;;;;;;;5.05;4.53;;;24.20;99.90;;;;;;4964252;29;20078;-79
2021/06/10 09:13:48;;;;;;;4.28;2.33;;;24.10;99.90;;;;;;4964161;29;20050;-79
2021/06/10 09:16:23;;;;;;;4.22;2.80;;;24.40;99.90;;;;;;4964288;29;20043;-80
2021/06/10 09:19:13;;;;;;;3.85;1.60;;;24.20;99.90;;;;;;4947923;29;20043;-79
2021/06/10 09:21:41;;;;;;;3.47;2.25;;;24.10;99.90;;;;;;4964084;29;20067;-80
2021/06/10 09:24:20;;;;;;;2.85;1.80;;;24.40;99.90;;;;;;4932331;29;20070;-79
2021/06/10 09:27:07;;;;;;;4.18;2.90;;;24.20;99.90;;;;;;4963976;29;20500;-79
2021/06/10 09:29:50;;;;;;;7.65;3.65;;;24.10;99.90;;;;;;4948067;29;20077;-80
2021/06/10 09:32:17;;;;;;;3.35;1.05;;;24.30;99.90;;;;;;4948107;29;20044;-80
2021/06/10 09:34:46;;;;;;;3.25;1.23;;;24.90;99.90;;;;;;4948040;29;20480;-79
2021/06/10 09:37:14;;;;;;;4.47;3.30;;;24.90;99.90;;;;;;4947908;29;20047;-79
2021/06/10 09:39:48;;;;;;;5.45;3.35;;;24.60;99.90;;;;;;4965042;28;20140;-80
2021/06/10 09:42:14;;;;;;;4.18;2.63;;;24.70;99.90;;;;;;4967890;28;20035;-80
2021/06/10 09:44:45;;;;;;;4.38;2.60;;;24.40;99.90;;;;;;4968579;28;20037;-79
2021/06/10 09:47:11;;;;;;;5.82;3.85;;;24.40;99.90;;;;;;5008875;28;20104;-79
2021/06/10 09:49:37;;;;;;;2.30;1.20;;;24.50;99.90;;;;;;5007525;28;20041;-80
2021/06/10 09:52:03;;;;;;;2.78;1.50;;;25.20;99.90;;;;;;5008854;28;20113;-80
2021/06/10 09:54:44;;;;;;;3.67;2.33;;;25.50;99.90;;;;;;4991214;28;20039;-80
2021/06/10 09:57:13;;;;;;;3.40;1.42;;;25.20;99.90;;;;;;5007328;28;20027;-80
2021/06/10 09:59:54;;;;;;;2.50;1.83;;;25.50;99.90;;;;;;4990858;28;20077;-80
2021/06/10 10:02:25;;;;;;;2.95;1.60;;;24.90;99.90;;;;;;5008716;28;20030;-80
2021/06/10 10:05:08;;;;;;;3.20;1.98;;;24.50;99.90;;;;;;5008536;28;20044;-79
2021/06/10 10:07:37;;;;;;;2.15;0.98;;;24.40;99.90;;;;;;5006550;28;20054;-80
2021/06/10 10:10:08;;;;;;;1.90;0.75;;;24.90;99.90;;;;;;4990948;28;20061;-80
2021/06/10 10:12:40;;;;;;;6.68;1.45;;;25.10;99.90;;;;;;5007321;28;20019;-80
2021/06/10 10:15:06;;;;;;;2.42;1.70;;;25.10;99.90;;;;;;5008219;28;20053;-80
2021/06/10 10:17:32;;;;;;;2.53;1.67;;;24.90;99.90;;;;;;5008153;28;20031;-80
2021/06/10 10:19:57;;;;;;;2.70;1.80;;;25.00;99.90;;;;;;5006594;28;20045;-80
2021/06/10 10:22:24;;;;;;;3.53;1.10;;;25.00;99.90;;;;;;5008131;28;20092;-80
2021/06/10 10:24:53;;;;;;;1.63;0.82;;;25.30;99.90;;;;;;5008108;28;20042;-79
2021/06/10 10:27:21;;;;;;;3.42;1.88;;;25.00;99.90;;;;;;4990614;28;20066;-79
2021/06/10 10:29:48;;;;;;;5.25;2.40;;;24.80;99.90;;;;;;5007934;28;20038;-80
2021/06/10 10:32:20;;;;;;;4.53;2.50;;;24.80;99.90;;;;;;5006927;28;20045;-80
2021/06/10 10:34:46;;;;;;;4.65;1.80;;;24.70;99.90;;;;;;5008653;28;20030;-79
2021/06/10 10:37:27;;;;;;;2.50;1.17;;;24.90;99.90;;;;;;5007594;28;20045;-79
2021/06/10 10:39:55;;;;;;;3.08;2.25;;;25.30;99.90;;;;;;5008173;28;20046;-80
2021/06/10 10:42:35;;;;;;;3.85;1.58;;;25.20;99.90;;;;;;5006935;28;20030;-79
2021/06/10 10:45:17;;;;;;;3.08;2.33;;;25.10;99.90;;;;;;5006379;28;20117;-79
2021/06/10 10:47:47;;;;;;;3.28;2.00;;;25.10;99.90;;;;;;5006572;28;20046;-79
2021/06/10 10:50:17;;;;;;;2.90;1.90;;;25.00;99.90;;;;;;5006515;28;20042;-80
2021/06/10 10:52:56;;;;;;;3.67;2.15;;;25.40;99.90;;;;;;5006630;28;20058;-79
2021/06/10 10:55:29;;;;;;;2.72;1.25;;;25.50;99.90;;;;;;5022044;28;20030;-79
2021/06/10 10:58:08;;;;;;;3.38;1.75;;;25.90;99.90;;;;;;4989560;28;20034;-79
2021/06/10 11:00:54;;;;;;;3.13;1.52;;;25.50;99.90;;;;;;5003462;28;20113;-80
2021/06/10 11:03:25;;;;;;;4.10;1.08;;;25.80;99.90;;;;;;5007548;28;20109;-79
2021/06/10 11:06:26;;;;;;;2.13;1.10;;;26.00;99.90;;;;;;5005775;28;20479;-80
2021/06/10 11:09:15;;;;;;;1.60;0.65;;;26.00;99.90;;;;;;4984774;28;20061;-80
2021/06/10 11:12:11;;;;;;;;;;;27.00;99.90;;;;;;4969369;28;20058;-80
2021/06/10 11:14:39;;;;;;;3.97;1.27;;;26.60;99.90;;;;;;4967764;28;19910;-79
2021/06/10 11:17:17;;;;;;;2.55;1.73;;;26.20;99.90;;;;;;4984857;28;20605;-80
2021/06/10 11:19:49;;;;;;;3.90;1.98;;;25.80;99.90;;;;;;4968525;28;20113;-80
2021/06/10 11:22:25;;;;;;;4.53;1.50;;;26.00;99.90;;;;;;4985126;28;20043;-80
2021/06/10 11:24:51;;;;;;;5.45;2.35;;;25.80;99.90;;;;;;4969685;28;20035;-80
2021/06/10 11:27:34;;;;;;;2.40;0.75;;;26.20;99.90;;;;;;5005544;28;20052;-80
2021/06/10 11:30:20;;;;;;;4.63;2.10;;;26.10;99.90;;;;;;4988337;28;20054;-79
2021/06/10 11:33:09;;;;;;;3.90;1.15;;;25.80;99.90;;;;;;4988211;28;20046;-80
2021/06/10 11:35:43;;;;;;;3.20;1.83;;;25.80;99.90;;;;;;5004294;28;20066;-80
2021/06/10 11:38:14;;;;;;;2.40;1.20;;;25.90;99.90;;;;;;4987634;28;20034;-80
2021/06/10 11:40:44;;;;;;;3.13;2.65;;;26.00;99.90;;;;;;4971514;28;20081;-80
2021/06/10 11:43:12;;;;;;;2.05;1.10;;;26.00;99.90;;;;;;5004312;28;20210;-80
2021/06/10 11:45:39;;;;;;;5.38;1.33;;;26.50;99.90;;;;;;4984919;28;20053;-80
2021/06/10 11:48:05;;;;;;;3.05;0.65;;;26.30;99.90;;;;;;4985728;28;20045;-80
2021/06/10 11:50:35;;;;;;;2.20;0.90;;;27.20;99.90;;;;;;4986651;28;20478;-80
2021/06/10 11:53:06;;;;;;;3.00;1.20;;;27.60;99.90;;;;;;4969374;28;20043;-80
2021/06/10 11:55:33;;;;;;;2.22;1.10;;;27.80;99.90;;;;;;4985140;28;20038;-79
2021/06/10 11:58:05;;;;;;;2.35;1.52;;;27.50;99.60;;;;;;4991112;28;20046;-80
2021/06/10 12:00:34;;;;;;;5.35;0.98;;;27.00;98.80;;;;;;4985267;28;20042;-79
2021/06/10 12:03:01;;;;;;;4.35;2.45;;;26.80;98.30;;;;;;4985530;28;20456;-80
2021/06/10 12:05:31;;;;;;;3.17;2.08;;;26.40;99.90;;;;;;4984706;28;20127;-80
2021/06/10 12:08:07;;;;;;;2.00;1.13;;;26.30;99.50;;;;;;4997421;28;20046;-80
2021/06/10 12:10:33;;;;;;;1.90;1.00;;;26.50;98.80;;;;;;5005654;28;20038;-80
2021/06/10 12:12:58;;;;;;;1.63;0.90;;;26.80;99.90;;;;;;5004776;28;20034;-80
2021/06/10 12:15:26;;;;;;;2.63;1.08;;;26.90;97.20;;;;;;5006339;28;20109;-80
2021/06/10 12:17:53;;;;;;;3.15;1.73;;;26.70;98.30;;;;;;5005549;28;20041;-80
2021/06/10 12:20:21;;;;;;;2.03;1.00;;;26.50;99.60;;;;;;5004682;28;20038;-80
2021/06/10 12:22:48;;;;;;;1.92;0.70;;;27.10;99.90;;;;;;5005950;28;20018;-80
2021/06/10 12:25:29;;;;;;;3.40;1.50;;;27.70;99.90;;;;;;5004436;28;20033;-80
2021/06/10 12:27:56;;;;;;;1.77;0.70;;;27.40;96.90;;;;;;5004392;28;20052;-80
2021/06/10 12:30:35;;;;;;;2.17;0.90;;;27.20;98.70;;;;;;5005771;28;20053;-80
2021/06/10 12:33:21;;;;;;;2.43;0.67;;;27.80;99.90;;;;;;5004515;28;20387;-80
2021/06/10 12:35:49;;;;;;;2.95;0.65;;;27.70;97.30;;;;;;5004387;28;20041;-80
2021/06/10 12:38:16;;;;;;;1.73;0.70;;;27.50;99.20;;;;;;5004387;28;20038;-80
2021/06/10 12:40:47;;;;;;;1.42;0.70;;;28.00;98.20;;;;;;4988107;28;20070;-81
2021/06/10 12:43:23;;;;;;;2.00;0.60;;;27.90;99.10;;;;;;5005738;28;20034;-80
2021/06/10 12:46:01;;;;;;;2.85;0.80;;;27.50;97.70;;;;;;4988386;28;20603;-80
2021/06/10 12:48:29;;;;;;;2.72;0.88;;;27.30;98.60;;;;;;5004074;28;20041;-80
2021/06/10 12:51:16;;;;;;;1.42;0.60;;;27.70;98.00;;;;;;5004300;28;20034;-81
2021/06/10 13:17:48;;;;;;;3.20;0.60;;;27.30;95.20;;;;;;5008133;28;20130;-81
2021/06/10 13:20:14;;;;;;;1.08;0.30;;;27.20;94.30;;;;;;5006171;28;22178;-80